Terminal Aerodrome Forecast
Issued by NWS Memphis, TN

Home | Current Version | Previous Version | Text Only | Print | Product List | Glossary On
Versions: 1 2 3 4 5 6 7 8 9 10 11 12 13 14 15 16 17 18 19 20 21 22 23 24 25
000
FTUS44 KMEG 291400 AAA
TAFMEM
TAF AMD
KMEM 291420Z 2914/3012 20008KT P6SM SCT050 BKN250
     FM300100 18005KT P6SM BKN250
     FM300700 19004KT P6SM VCSH SCT060 OVC150
      TEMPO 3008/3012 6SM -SHRA=

USA.gov is the U.S. government's official web portal to all federal, state and local government web resources and services.